Macomb, IL

5:40 PM CST on January 20, 2017 (GMT -0600)
Tillman Hall - WIU Geography | | Change Station
Active Advisory: Dense Fog Advisory

Elev 712 ft 40.46 °N, 90.68 °W | Updated 10 minutes ago

Fog
Fog
47.9 °F
Feels Like 46 °F
N
4.0
Wind Variable Wind from SE
Gusts 7.0 mph

Today
High -- | Low -- °F
--% Chance of Precip.
Yesterday
High -- | Low -- °F
Precip. -- in
Pressure 29.59 in
Visibility 1.2 miles
Clouds Overcast 300 ft
Windchill 46 °F
Dew Point 45 °F
Humidity 91%
Rainfall 0.00 in
Snow Depth Not available.
7:21 AM 5:06 PM
Last Quarter, 40% visible
METAR KMQB 202335Z AUTO 12005KT 1 1/4SM BR OVC003 08/08 A2959 RMK AO2 T00770077
Pressure 29.59 in
Visibility 1.2 miles
Clouds Overcast 300 ft
Windchill 46 °F
Dew Point 45 °F
Humidity 91%
Rainfall 0.00 in
Snow Depth Not available.
7:21 AM 5:06 PM
Last Quarter, 40% visible
METAR KMQB 202335Z AUTO 12005KT 1 1/4SM BR OVC003 08/08 A2959 RMK AO2 T00770077

Get Your Daily Forecast Email!

Thanks for signing up!

Be on the lookout for a verification email in your inbox.

You'll start receiving the daily forecast at 8 AM.

×

10-Day Weather Forecast

Almanac

Astronomy

Jan. 20, 2017 Rise Set
Actual Time
Civil Twilight
Nautical Twilight
Astronomical Twilight
Moon
Length of Visible Light
Length of Day
Tomorrow will be .
, % of the Moon is Illuminated

Today's Extremes

State Highs State Lows

Community

WunderPhotos

Upload Photos

1,962,540 photos uploaded!

WunderBlog® & News

Nearby

Air Quality

  Air Quality AQ Index Pollutant
Not available.

Snow Depth

Station Depth Elevation

Earthquake Activity

City Distance Mag. Time & Date
Minimum magnitude displayed is 2.5.

Coastal Water Temperatures

Place Temperature

Stations

Nearby Weather Stations

Station Location Temp. Windchill Dew Point Humidity Wind Precip. Elev Updated Type
                   

Watches & Warnings

Dense Fog Advisory
Issued: 3:14 PM CST Jan. 20, 2017 – National Weather Service

... Dense fog advisory in effect until 4 am CST Saturday...

The National Weather Service in Quad Cities has issued a dense
fog advisory... which is in effect until 4 am CST Saturday.

* Timing... through early Saturday morning. Areas near and east of
the Mississippi River may not see widespread dense fog until
after 8 PM. Late evening and overnight the dense fog is expected
to lift and visibilities improve from south to north.

* Visibility... less than 1/4 mile at times.

* Impacts... driving will be hazardous due to severely reduced
visibility at times.

Precautionary/preparedness actions...

A dense fog advisory means visibilities will frequently be
reduced to less than one quarter mile. If driving, slow down, use
your headlights, and leave plenty of distance ahead of you.